sensor_id;sensor_type;location;lat;lon;timestamp;P1;durP1;ratioP1;P2;durP2;ratioP2
79539;SDS011;68991;52.122;5.406;2023-07-31T00:02:08;2.00;;;0.80;;
79539;SDS011;68991;52.122;5.406;2023-07-31T00:04:34;3.38;;;1.20;;
79539;SDS011;68991;52.122;5.406;2023-07-31T00:07:01;1.83;;;1.00;;
79539;SDS011;68991;52.122;5.406;2023-07-31T00:09:30;2.83;;;1.10;;
79539;SDS011;68991;52.122;5.406;2023-07-31T00:11:56;2.55;;;1.00;;
79539;SDS011;68991;52.122;5.406;2023-07-31T00:14:23;3.15;;;1.30;;
79539;SDS011;68991;52.122;5.406;2023-07-31T00:16:50;2.20;;;1.02;;
79539;SDS011;68991;52.122;5.406;2023-07-31T00:19:17;2.17;;;1.33;;
79539;SDS011;68991;52.122;5.406;2023-07-31T00:21:44;1.83;;;1.00;;
79539;SDS011;68991;52.122;5.406;2023-07-31T00:24:11;2.33;;;1.08;;
79539;SDS011;68991;52.122;5.406;2023-07-31T00:26:37;2.25;;;1.00;;
79539;SDS011;68991;52.122;5.406;2023-07-31T00:29:04;2.78;;;0.90;;
79539;SDS011;68991;52.122;5.406;2023-07-31T00:31:31;4.22;;;1.20;;
79539;SDS011;68991;52.122;5.406;2023-07-31T00:33:57;3.08;;;1.23;;
79539;SDS011;68991;52.122;5.406;2023-07-31T00:36:24;3.20;;;1.17;;
79539;SDS011;68991;52.122;5.406;2023-07-31T00:38:50;2.63;;;1.00;;
79539;SDS011;68991;52.122;5.406;2023-07-31T00:41:17;1.95;;;1.08;;
79539;SDS011;68991;52.122;5.406;2023-07-31T00:43:43;2.03;;;1.00;;
79539;SDS011;68991;52.122;5.406;2023-07-31T00:46:10;1.63;;;0.90;;
79539;SDS011;68991;52.122;5.406;2023-07-31T00:48:37;2.35;;;1.00;;
79539;SDS011;68991;52.122;5.406;2023-07-31T00:51:04;3.38;;;1.02;;
79539;SDS011;68991;52.122;5.406;2023-07-31T00:53:30;2.42;;;1.00;;
79539;SDS011;68991;52.122;5.406;2023-07-31T00:55:57;2.17;;;1.10;;
79539;SDS011;68991;52.122;5.406;2023-07-31T00:58:24;2.00;;;0.90;;
79539;SDS011;68991;52.122;5.406;2023-07-31T01:00:50;3.15;;;1.05;;
79539;SDS011;68991;52.122;5.406;2023-07-31T01:03:17;4.47;;;1.15;;
79539;SDS011;68991;52.122;5.406;2023-07-31T01:10:56;3.90;;;1.48;;
79539;SDS011;68991;52.122;5.406;2023-07-31T01:13:34;2.92;;;1.23;;
79539;SDS011;68991;52.122;5.406;2023-07-31T01:16:01;2.00;;;1.30;;
79539;SDS011;68991;52.122;5.406;2023-07-31T01:18:27;2.15;;;1.10;;
79539;SDS011;68991;52.122;5.406;2023-07-31T01:20:54;2.00;;;0.93;;
79539;SDS011;68991;52.122;5.406;2023-07-31T01:23:33;2.50;;;1.20;;
79539;SDS011;68991;52.122;5.406;2023-07-31T01:26:12;2.30;;;1.15;;
79539;SDS011;68991;52.122;5.406;2023-07-31T01:31:30;2.67;;;1.20;;
79539;SDS011;68991;52.122;5.406;2023-07-31T01:34:00;3.00;;;1.02;;
79539;SDS011;68991;52.122;5.406;2023-07-31T01:36:27;2.58;;;0.93;;
79539;SDS011;68991;52.122;5.406;2023-07-31T01:38:59;2.72;;;1.17;;
79539;SDS011;68991;52.122;5.406;2023-07-31T01:41:26;3.28;;;1.25;;
79539;SDS011;68991;52.122;5.406;2023-07-31T01:43:53;3.08;;;1.38;;
79539;SDS011;68991;52.122;5.406;2023-07-31T01:46:20;2.45;;;1.30;;
79539;SDS011;68991;52.122;5.406;2023-07-31T01:48:46;4.82;;;1.13;;
79539;SDS011;68991;52.122;5.406;2023-07-31T01:51:13;3.60;;;1.23;;
79539;SDS011;68991;52.122;5.406;2023-07-31T01:53:39;3.40;;;1.33;;
79539;SDS011;68991;52.122;5.406;2023-07-31T01:56:06;3.30;;;1.20;;
79539;SDS011;68991;52.122;5.406;2023-07-31T01:58:32;3.63;;;1.30;;
79539;SDS011;68991;52.122;5.406;2023-07-31T02:00:59;2.53;;;1.13;;
79539;SDS011;68991;52.122;5.406;2023-07-31T02:03:25;2.58;;;1.20;;
79539;SDS011;68991;52.122;5.406;2023-07-31T02:05:53;3.38;;;1.45;;
79539;SDS011;68991;52.122;5.406;2023-07-31T02:08:20;4.35;;;1.58;;
79539;SDS011;68991;52.122;5.406;2023-07-31T02:10:47;3.10;;;1.48;;
79539;SDS011;68991;52.122;5.406;2023-07-31T02:13:13;3.13;;;1.23;;
79539;SDS011;68991;52.122;5.406;2023-07-31T02:15:40;4.50;;;1.63;;
79539;SDS011;68991;52.122;5.406;2023-07-31T02:18:06;3.22;;;1.38;;
79539;SDS011;68991;52.122;5.406;2023-07-31T02:20:33;2.45;;;1.30;;
79539;SDS011;68991;52.122;5.406;2023-07-31T02:23:01;2.92;;;1.10;;
79539;SDS011;68991;52.122;5.406;2023-07-31T02:25:28;1.98;;;1.08;;
79539;SDS011;68991;52.122;5.406;2023-07-31T02:27:55;3.75;;;1.20;;
79539;SDS011;68991;52.122;5.406;2023-07-31T02:30:21;3.97;;;1.40;;
79539;SDS011;68991;52.122;5.406;2023-07-31T02:32:48;3.30;;;1.35;;
79539;SDS011;68991;52.122;5.406;2023-07-31T02:35:15;2.88;;;1.30;;
79539;SDS011;68991;52.122;5.406;2023-07-31T02:37:42;3.55;;;1.50;;
79539;SDS011;68991;52.122;5.406;2023-07-31T02:40:08;3.85;;;1.10;;
79539;SDS011;68991;52.122;5.406;2023-07-31T02:42:35;3.47;;;1.30;;
79539;SDS011;68991;52.122;5.406;2023-07-31T02:45:02;2.90;;;1.17;;
79539;SDS011;68991;52.122;5.406;2023-07-31T02:47:29;3.38;;;1.27;;
79539;SDS011;68991;52.122;5.406;2023-07-31T02:49:55;3.13;;;1.40;;
79539;SDS011;68991;52.122;5.406;2023-07-31T02:52:22;3.65;;;1.42;;
79539;SDS011;68991;52.122;5.406;2023-07-31T02:54:48;2.40;;;1.02;;
79539;SDS011;68991;52.122;5.406;2023-07-31T02:57:15;2.40;;;1.10;;
79539;SDS011;68991;52.122;5.406;2023-07-31T02:59:42;3.60;;;1.60;;
79539;SDS011;68991;52.122;5.406;2023-07-31T03:02:09;4.35;;;1.58;;
79539;SDS011;68991;52.122;5.406;2023-07-31T03:04:35;2.70;;;1.13;;
79539;SDS011;68991;52.122;5.406;2023-07-31T03:07:02;3.17;;;1.65;;
79539;SDS011;68991;52.122;5.406;2023-07-31T03:09:28;3.65;;;1.58;;
79539;SDS011;68991;52.122;5.406;2023-07-31T03:11:54;4.88;;;1.50;;
79539;SDS011;68991;52.122;5.406;2023-07-31T03:14:21;3.80;;;1.83;;
79539;SDS011;68991;52.122;5.406;2023-07-31T03:16:48;4.05;;;1.70;;
79539;SDS011;68991;52.122;5.406;2023-07-31T03:19:15;3.25;;;1.73;;
79539;SDS011;68991;52.122;5.406;2023-07-31T03:21:41;4.97;;;1.35;;
79539;SDS011;68991;52.122;5.406;2023-07-31T03:24:08;3.70;;;1.50;;
79539;SDS011;68991;52.122;5.406;2023-07-31T03:26:34;4.20;;;1.98;;
79539;SDS011;68991;52.122;5.406;2023-07-31T03:29:03;2.45;;;1.38;;
79539;SDS011;68991;52.122;5.406;2023-07-31T03:31:29;3.55;;;1.40;;
79539;SDS011;68991;52.122;5.406;2023-07-31T03:33:56;5.38;;;1.50;;
79539;SDS011;68991;52.122;5.406;2023-07-31T03:36:22;4.88;;;1.80;;
79539;SDS011;68991;52.122;5.406;2023-07-31T03:38:50;4.43;;;1.50;;
79539;SDS011;68991;52.122;5.406;2023-07-31T03:41:17;4.32;;;1.92;;
79539;SDS011;68991;52.122;5.406;2023-07-31T03:43:45;6.00;;;1.65;;
79539;SDS011;68991;52.122;5.406;2023-07-31T03:46:14;4.18;;;1.50;;
79539;SDS011;68991;52.122;5.406;2023-07-31T03:48:40;2.78;;;1.48;;
79539;SDS011;68991;52.122;5.406;2023-07-31T03:51:07;4.82;;;1.63;;
79539;SDS011;68991;52.122;5.406;2023-07-31T03:53:33;5.80;;;1.70;;
79539;SDS011;68991;52.122;5.406;2023-07-31T03:55:59;3.80;;;1.65;;
79539;SDS011;68991;52.122;5.406;2023-07-31T03:58:26;7.53;;;1.88;;
79539;SDS011;68991;52.122;5.406;2023-07-31T04:00:52;4.57;;;1.85;;
79539;SDS011;68991;52.122;5.406;2023-07-31T04:03:19;5.82;;;1.70;;
79539;SDS011;68991;52.122;5.406;2023-07-31T04:05:45;4.90;;;1.80;;
79539;SDS011;68991;52.122;5.406;2023-07-31T04:08:12;4.82;;;1.83;;
79539;SDS011;68991;52.122;5.406;2023-07-31T04:10:38;4.57;;;1.80;;
79539;SDS011;68991;52.122;5.406;2023-07-31T04:13:05;6.90;;;1.70;;
79539;SDS011;68991;52.122;5.406;2023-07-31T04:15:31;4.72;;;1.80;;
79539;SDS011;68991;52.122;5.406;2023-07-31T04:17:58;4.00;;;1.90;;
79539;SDS011;68991;52.122;5.406;2023-07-31T04:20:24;4.53;;;1.80;;
79539;SDS011;68991;52.122;5.406;2023-07-31T04:22:51;6.60;;;2.20;;
79539;SDS011;68991;52.122;5.406;2023-07-31T04:25:17;6.93;;;2.78;;
79539;SDS011;68991;52.122;5.406;2023-07-31T04:27:44;4.20;;;1.83;;
79539;SDS011;68991;52.122;5.406;2023-07-31T04:30:10;13.35;;;2.53;;
79539;SDS011;68991;52.122;5.406;2023-07-31T04:32:37;4.95;;;2.03;;
79539;SDS011;68991;52.122;5.406;2023-07-31T04:35:03;5.50;;;2.00;;
79539;SDS011;68991;52.122;5.406;2023-07-31T04:37:30;3.75;;;2.00;;
79539;SDS011;68991;52.122;5.406;2023-07-31T04:39:57;5.28;;;1.98;;
79539;SDS011;68991;52.122;5.406;2023-07-31T04:42:23;6.85;;;2.50;;
79539;SDS011;68991;52.122;5.406;2023-07-31T04:44:50;4.50;;;1.70;;
79539;SDS011;68991;52.122;5.406;2023-07-31T04:47:16;4.95;;;1.98;;
79539;SDS011;68991;52.122;5.406;2023-07-31T04:49:42;5.97;;;1.95;;
79539;SDS011;68991;52.122;5.406;2023-07-31T04:52:09;5.55;;;1.65;;
79539;SDS011;68991;52.122;5.406;2023-07-31T04:54:35;4.88;;;1.75;;
79539;SDS011;68991;52.122;5.406;2023-07-31T04:57:02;6.90;;;1.80;;
79539;SDS011;68991;52.122;5.406;2023-07-31T04:59:28;4.00;;;1.92;;
79539;SDS011;68991;52.122;5.406;2023-07-31T05:01:55;5.00;;;1.80;;
79539;SDS011;68991;52.122;5.406;2023-07-31T05:04:22;4.45;;;1.75;;
79539;SDS011;68991;52.122;5.406;2023-07-31T05:06:48;5.72;;;2.30;;
79539;SDS011;68991;52.122;5.406;2023-07-31T05:09:15;5.50;;;1.77;;
79539;SDS011;68991;52.122;5.406;2023-07-31T05:11:41;8.23;;;2.72;;
79539;SDS011;68991;52.122;5.406;2023-07-31T05:14:09;8.82;;;2.60;;
79539;SDS011;68991;52.122;5.406;2023-07-31T05:16:35;6.97;;;3.08;;
79539;SDS011;68991;52.122;5.406;2023-07-31T05:19:02;8.40;;;3.40;;
79539;SDS011;68991;52.122;5.406;2023-07-31T05:21:29;15.00;;;10.85;;
79539;SDS011;68991;52.122;5.406;2023-07-31T05:23:55;9.68;;;6.63;;
79539;SDS011;68991;52.122;5.406;2023-07-31T05:26:22;17.77;;;8.95;;
79539;SDS011;68991;52.122;5.406;2023-07-31T05:28:48;19.83;;;8.48;;
79539;SDS011;68991;52.122;5.406;2023-07-31T05:31:15;18.50;;;8.55;;
79539;SDS011;68991;52.122;5.406;2023-07-31T05:33:41;14.23;;;7.00;;
79539;SDS011;68991;52.122;5.406;2023-07-31T05:36:08;12.48;;;6.70;;
79539;SDS011;68991;52.122;5.406;2023-07-31T05:38:35;11.23;;;6.53;;
79539;SDS011;68991;52.122;5.406;2023-07-31T05:41:01;10.98;;;6.10;;
79539;SDS011;68991;52.122;5.406;2023-07-31T05:43:28;13.07;;;5.95;;
79539;SDS011;68991;52.122;5.406;2023-07-31T05:45:55;10.10;;;5.05;;
79539;SDS011;68991;52.122;5.406;2023-07-31T05:48:21;9.82;;;4.85;;
79539;SDS011;68991;52.122;5.406;2023-07-31T05:50:48;9.07;;;4.38;;
79539;SDS011;68991;52.122;5.406;2023-07-31T05:53:14;7.97;;;4.20;;
79539;SDS011;68991;52.122;5.406;2023-07-31T05:55:41;8.63;;;4.43;;
79539;SDS011;68991;52.122;5.406;2023-07-31T05:58:07;7.63;;;3.97;;
79539;SDS011;68991;52.122;5.406;2023-07-31T06:00:33;7.95;;;3.90;;
79539;SDS011;68991;52.122;5.406;2023-07-31T06:03:00;7.63;;;3.80;;
79539;SDS011;68991;52.122;5.406;2023-07-31T06:05:27;8.88;;;3.25;;
79539;SDS011;68991;52.122;5.406;2023-07-31T06:07:55;7.32;;;3.70;;
79539;SDS011;68991;52.122;5.406;2023-07-31T06:10:22;7.85;;;3.30;;
79539;SDS011;68991;52.122;5.406;2023-07-31T06:12:48;6.13;;;3.20;;
79539;SDS011;68991;52.122;5.406;2023-07-31T06:15:15;7.57;;;3.53;;
79539;SDS011;68991;52.122;5.406;2023-07-31T06:17:41;5.65;;;3.05;;
79539;SDS011;68991;52.122;5.406;2023-07-31T06:20:09;6.50;;;3.10;;
79539;SDS011;68991;52.122;5.406;2023-07-31T06:22:36;6.18;;;2.75;;
79539;SDS011;68991;52.122;5.406;2023-07-31T06:25:02;6.07;;;2.50;;
79539;SDS011;68991;52.122;5.406;2023-07-31T06:27:29;8.27;;;2.88;;
79539;SDS011;68991;52.122;5.406;2023-07-31T06:29:55;6.82;;;2.42;;
79539;SDS011;68991;52.122;5.406;2023-07-31T06:32:22;5.45;;;2.28;;
79539;SDS011;68991;52.122;5.406;2023-07-31T06:34:49;6.57;;;2.13;;
79539;SDS011;68991;52.122;5.406;2023-07-31T06:37:15;6.10;;;2.38;;
79539;SDS011;68991;52.122;5.406;2023-07-31T06:39:42;4.80;;;1.90;;
79539;SDS011;68991;52.122;5.406;2023-07-31T06:42:09;3.28;;;1.90;;
79539;SDS011;68991;52.122;5.406;2023-07-31T06:44:35;5.32;;;1.83;;
79539;SDS011;68991;52.122;5.406;2023-07-31T06:47:02;5.32;;;1.90;;
79539;SDS011;68991;52.122;5.406;2023-07-31T06:49:28;4.55;;;2.58;;
79539;SDS011;68991;52.122;5.406;2023-07-31T06:51:55;4.25;;;1.92;;
79539;SDS011;68991;52.122;5.406;2023-07-31T06:54:21;4.68;;;1.77;;
79539;SDS011;68991;52.122;5.406;2023-07-31T06:56:48;6.00;;;2.20;;
79539;SDS011;68991;52.122;5.406;2023-07-31T06:59:14;6.47;;;2.50;;
79539;SDS011;68991;52.122;5.406;2023-07-31T07:01:40;5.68;;;2.05;;
79539;SDS011;68991;52.122;5.406;2023-07-31T07:04:07;6.22;;;1.50;;
79539;SDS011;68991;52.122;5.406;2023-07-31T07:06:33;3.92;;;1.70;;
79539;SDS011;68991;52.122;5.406;2023-07-31T07:09:00;5.20;;;2.15;;
79539;SDS011;68991;52.122;5.406;2023-07-31T07:11:27;6.88;;;2.42;;
79539;SDS011;68991;52.122;5.406;2023-07-31T07:13:53;4.25;;;1.90;;
79539;SDS011;68991;52.122;5.406;2023-07-31T07:16:19;4.45;;;1.80;;
79539;SDS011;68991;52.122;5.406;2023-07-31T07:18:46;3.63;;;2.00;;
79539;SDS011;68991;52.122;5.406;2023-07-31T07:21:28;5.00;;;2.17;;
79539;SDS011;68991;52.122;5.406;2023-07-31T07:23:54;4.25;;;2.10;;
79539;SDS011;68991;52.122;5.406;2023-07-31T07:26:20;3.88;;;2.03;;
79539;SDS011;68991;52.122;5.406;2023-07-31T07:28:47;4.63;;;2.13;;
79539;SDS011;68991;52.122;5.406;2023-07-31T07:31:13;3.35;;;1.63;;
79539;SDS011;68991;52.122;5.406;2023-07-31T07:33:40;3.85;;;1.63;;
79539;SDS011;68991;52.122;5.406;2023-07-31T07:36:06;5.47;;;2.00;;
79539;SDS011;68991;52.122;5.406;2023-07-31T07:38:36;3.55;;;1.65;;
79539;SDS011;68991;52.122;5.406;2023-07-31T07:41:03;3.45;;;1.63;;
79539;SDS011;68991;52.122;5.406;2023-07-31T07:43:29;3.83;;;1.70;;
79539;SDS011;68991;52.122;5.406;2023-07-31T07:45:56;4.13;;;2.17;;
79539;SDS011;68991;52.122;5.406;2023-07-31T07:48:23;4.32;;;1.88;;
79539;SDS011;68991;52.122;5.406;2023-07-31T07:50:49;2.97;;;1.75;;
79539;SDS011;68991;52.122;5.406;2023-07-31T07:53:16;3.95;;;1.60;;
79539;SDS011;68991;52.122;5.406;2023-07-31T07:55:42;3.95;;;1.63;;
79539;SDS011;68991;52.122;5.406;2023-07-31T07:58:09;3.22;;;1.70;;
79539;SDS011;68991;52.122;5.406;2023-07-31T08:00:35;3.40;;;1.80;;
79539;SDS011;68991;52.122;5.406;2023-07-31T08:03:02;3.53;;;1.73;;
79539;SDS011;68991;52.122;5.406;2023-07-31T08:05:28;3.42;;;1.80;;
79539;SDS011;68991;52.122;5.406;2023-07-31T08:07:58;3.20;;;1.80;;
79539;SDS011;68991;52.122;5.406;2023-07-31T08:10:25;4.28;;;1.60;;
79539;SDS011;68991;52.122;5.406;2023-07-31T08:12:51;3.38;;;1.48;;
79539;SDS011;68991;52.122;5.406;2023-07-31T08:15:17;3.97;;;1.65;;
79539;SDS011;68991;52.122;5.406;2023-07-31T08:17:44;3.08;;;1.42;;
79539;SDS011;68991;52.122;5.406;2023-07-31T08:20:10;3.28;;;1.60;;
79539;SDS011;68991;52.122;5.406;2023-07-31T08:22:37;3.13;;;1.80;;
79539;SDS011;68991;52.122;5.406;2023-07-31T08:25:04;2.25;;;1.38;;
79539;SDS011;68991;52.122;5.406;2023-07-31T08:27:32;3.85;;;1.58;;
79539;SDS011;68991;52.122;5.406;2023-07-31T08:29:58;2.97;;;1.58;;
79539;SDS011;68991;52.122;5.406;2023-07-31T08:32:24;3.35;;;1.55;;
79539;SDS011;68991;52.122;5.406;2023-07-31T08:34:51;3.90;;;1.63;;
79539;SDS011;68991;52.122;5.406;2023-07-31T08:37:17;2.10;;;1.50;;
79539;SDS011;68991;52.122;5.406;2023-07-31T08:39:44;2.60;;;1.50;;
79539;SDS011;68991;52.122;5.406;2023-07-31T08:42:10;3.20;;;1.38;;
79539;SDS011;68991;52.122;5.406;2023-07-31T08:44:38;2.60;;;1.25;;
79539;SDS011;68991;52.122;5.406;2023-07-31T08:47:04;3.30;;;1.50;;
79539;SDS011;68991;52.122;5.406;2023-07-31T08:49:32;3.47;;;1.48;;
79539;SDS011;68991;52.122;5.406;2023-07-31T08:52:00;2.65;;;1.23;;
79539;SDS011;68991;52.122;5.406;2023-07-31T08:54:26;2.25;;;1.17;;
79539;SDS011;68991;52.122;5.406;2023-07-31T08:56:57;2.35;;;1.20;;
79539;SDS011;68991;52.122;5.406;2023-07-31T08:59:27;2.67;;;1.40;;
79539;SDS011;68991;52.122;5.406;2023-07-31T09:01:55;3.15;;;1.20;;
79539;SDS011;68991;52.122;5.406;2023-07-31T09:04:23;2.25;;;1.30;;
79539;SDS011;68991;52.122;5.406;2023-07-31T09:06:52;2.80;;;1.23;;
79539;SDS011;68991;52.122;5.406;2023-07-31T09:09:23;2.50;;;1.30;;
79539;SDS011;68991;52.122;5.406;2023-07-31T09:11:49;2.38;;;1.25;;
79539;SDS011;68991;52.122;5.406;2023-07-31T09:14:16;2.13;;;1.15;;
79539;SDS011;68991;52.122;5.406;2023-07-31T09:16:53;3.05;;;1.55;;
79539;SDS011;68991;52.122;5.406;2023-07-31T09:19:28;3.38;;;1.40;;
79539;SDS011;68991;52.122;5.406;2023-07-31T09:22:00;3.17;;;1.25;;
79539;SDS011;68991;52.122;5.406;2023-07-31T09:24:27;1.98;;;1.15;;
79539;SDS011;68991;52.122;5.406;2023-07-31T09:26:55;3.65;;;1.30;;
79539;SDS011;68991;52.122;5.406;2023-07-31T09:29:22;1.85;;;1.05;;
79539;SDS011;68991;52.122;5.406;2023-07-31T09:31:49;2.10;;;1.10;;
79539;SDS011;68991;52.122;5.406;2023-07-31T09:34:16;2.50;;;1.33;;
79539;SDS011;68991;52.122;5.406;2023-07-31T09:36:43;3.97;;;1.48;;
79539;SDS011;68991;52.122;5.406;2023-07-31T09:39:11;2.42;;;1.23;;
79539;SDS011;68991;52.122;5.406;2023-07-31T09:41:39;1.92;;;1.10;;
79539;SDS011;68991;52.122;5.406;2023-07-31T09:44:08;2.90;;;1.00;;
79539;SDS011;68991;52.122;5.406;2023-07-31T09:46:35;2.47;;;1.27;;
79539;SDS011;68991;52.122;5.406;2023-07-31T09:49:04;3.55;;;1.20;;
79539;SDS011;68991;52.122;5.406;2023-07-31T09:51:32;2.53;;;1.20;;
79539;SDS011;68991;52.122;5.406;2023-07-31T09:54:08;2.00;;;1.20;;
79539;SDS011;68991;52.122;5.406;2023-07-31T09:56:43;2.47;;;1.17;;
79539;SDS011;68991;52.122;5.406;2023-07-31T09:59:15;2.20;;;1.30;;
79539;SDS011;68991;52.122;5.406;2023-07-31T10:01:47;2.35;;;1.20;;
79539;SDS011;68991;52.122;5.406;2023-07-31T10:04:15;3.22;;;1.10;;
79539;SDS011;68991;52.122;5.406;2023-07-31T10:06:45;2.40;;;1.15;;
79539;SDS011;68991;52.122;5.406;2023-07-31T10:09:15;2.10;;;1.13;;
79539;SDS011;68991;52.122;5.406;2023-07-31T10:11:48;2.88;;;1.20;;
79539;SDS011;68991;52.122;5.406;2023-07-31T10:14:22;1.60;;;1.00;;
79539;SDS011;68991;52.122;5.406;2023-07-31T10:16:51;2.15;;;1.02;;
79539;SDS011;68991;52.122;5.406;2023-07-31T10:19:19;2.45;;;1.00;;
79539;SDS011;68991;52.122;5.406;2023-07-31T10:21:47;1.70;;;1.05;;
79539;SDS011;68991;52.122;5.406;2023-07-31T10:24:14;2.30;;;1.20;;
79539;SDS011;68991;52.122;5.406;2023-07-31T10:26:42;1.80;;;1.13;;
79539;SDS011;68991;52.122;5.406;2023-07-31T10:29:12;2.13;;;0.93;;
79539;SDS011;68991;52.122;5.406;2023-07-31T10:31:40;2.92;;;1.38;;
79539;SDS011;68991;52.122;5.406;2023-07-31T10:34:07;2.42;;;1.15;;
79539;SDS011;68991;52.122;5.406;2023-07-31T10:36:34;2.08;;;1.30;;
79539;SDS011;68991;52.122;5.406;2023-07-31T10:39:00;2.40;;;1.20;;
79539;SDS011;68991;52.122;5.406;2023-07-31T10:41:30;2.67;;;1.40;;
79539;SDS011;68991;52.122;5.406;2023-07-31T10:44:00;2.13;;;1.33;;
79539;SDS011;68991;52.122;5.406;2023-07-31T10:46:27;2.20;;;1.05;;
79539;SDS011;68991;52.122;5.406;2023-07-31T10:48:59;2.00;;;1.10;;
79539;SDS011;68991;52.122;5.406;2023-07-31T10:51:33;2.10;;;1.00;;
79539;SDS011;68991;52.122;5.406;2023-07-31T10:54:14;1.90;;;1.10;;
79539;SDS011;68991;52.122;5.406;2023-07-31T10:56:44;1.85;;;1.10;;
79539;SDS011;68991;52.122;5.406;2023-07-31T10:59:12;2.20;;;1.20;;
79539;SDS011;68991;52.122;5.406;2023-07-31T11:01:49;2.22;;;1.42;;
79539;SDS011;68991;52.122;5.406;2023-07-31T11:04:21;1.80;;;1.10;;
79539;SDS011;68991;52.122;5.406;2023-07-31T11:06:58;2.78;;;1.30;;
79539;SDS011;68991;52.122;5.406;2023-07-31T11:09:29;1.88;;;1.10;;
79539;SDS011;68991;52.122;5.406;2023-07-31T11:11:57;1.95;;;1.15;;
79539;SDS011;68991;52.122;5.406;2023-07-31T11:14:23;2.63;;;1.02;;
79539;SDS011;68991;52.122;5.406;2023-07-31T11:16:50;1.42;;;0.80;;
79539;SDS011;68991;52.122;5.406;2023-07-31T11:19:23;2.22;;;1.13;;
79539;SDS011;68991;52.122;5.406;2023-07-31T11:21:54;1.92;;;1.13;;
79539;SDS011;68991;52.122;5.406;2023-07-31T11:24:22;2.20;;;1.10;;
79539;SDS011;68991;52.122;5.406;2023-07-31T11:26:52;2.70;;;1.20;;
79539;SDS011;68991;52.122;5.406;2023-07-31T11:29:19;1.98;;;1.08;;
79539;SDS011;68991;52.122;5.406;2023-07-31T11:31:47;2.33;;;1.20;;
79539;SDS011;68991;52.122;5.406;2023-07-31T11:34:15;2.38;;;1.10;;
79539;SDS011;68991;52.122;5.406;2023-07-31T11:36:52;2.28;;;1.13;;
79539;SDS011;68991;52.122;5.406;2023-07-31T11:39:19;1.75;;;1.00;;
79539;SDS011;68991;52.122;5.406;2023-07-31T11:41:45;1.63;;;0.93;;
79539;SDS011;68991;52.122;5.406;2023-07-31T11:44:12;1.48;;;1.05;;
79539;SDS011;68991;52.122;5.406;2023-07-31T11:46:56;1.88;;;0.82;;
79539;SDS011;68991;52.122;5.406;2023-07-31T11:49:23;2.25;;;1.00;;
79539;SDS011;68991;52.122;5.406;2023-07-31T11:51:49;1.98;;;1.10;;
79539;SDS011;68991;52.122;5.406;2023-07-31T11:54:16;2.05;;;1.20;;
79539;SDS011;68991;52.122;5.406;2023-07-31T11:56:43;2.15;;;1.15;;
79539;SDS011;68991;52.122;5.406;2023-07-31T11:59:10;3.38;;;1.15;;
79539;SDS011;68991;52.122;5.406;2023-07-31T12:01:38;1.75;;;1.08;;
79539;SDS011;68991;52.122;5.406;2023-07-31T12:04:05;3.25;;;1.13;;
79539;SDS011;68991;52.122;5.406;2023-07-31T12:06:33;1.55;;;0.93;;
79539;SDS011;68991;52.122;5.406;2023-07-31T12:09:02;1.80;;;0.90;;
79539;SDS011;68991;52.122;5.406;2023-07-31T12:11:29;1.73;;;0.95;;
79539;SDS011;68991;52.122;5.406;2023-07-31T12:13:56;1.85;;;1.08;;
79539;SDS011;68991;52.122;5.406;2023-07-31T12:16:25;2.90;;;1.20;;
79539;SDS011;68991;52.122;5.406;2023-07-31T12:18:52;1.70;;;1.00;;
79539;SDS011;68991;52.122;5.406;2023-07-31T12:21:19;2.40;;;1.23;;
79539;SDS011;68991;52.122;5.406;2023-07-31T12:23:46;2.53;;;1.13;;
79539;SDS011;68991;52.122;5.406;2023-07-31T12:26:13;2.13;;;0.93;;
79539;SDS011;68991;52.122;5.406;2023-07-31T12:31:10;1.95;;;1.10;;
79539;SDS011;68991;52.122;5.406;2023-07-31T12:33:39;1.48;;;1.00;;
79539;SDS011;68991;52.122;5.406;2023-07-31T12:36:07;2.00;;;1.13;;
79539;SDS011;68991;52.122;5.406;2023-07-31T12:38:35;1.48;;;0.93;;
79539;SDS011;68991;52.122;5.406;2023-07-31T12:41:02;1.65;;;1.02;;
79539;SDS011;68991;52.122;5.406;2023-07-31T12:43:28;2.40;;;1.10;;
79539;SDS011;68991;52.122;5.406;2023-07-31T12:45:55;2.85;;;1.10;;
79539;SDS011;68991;52.122;5.406;2023-07-31T12:48:22;1.60;;;0.93;;
79539;SDS011;68991;52.122;5.406;2023-07-31T12:50:49;1.55;;;0.90;;
79539;SDS011;68991;52.122;5.406;2023-07-31T12:53:15;3.55;;;1.10;;
79539;SDS011;68991;52.122;5.406;2023-07-31T12:55:42;2.20;;;1.10;;
79539;SDS011;68991;52.122;5.406;2023-07-31T12:58:09;2.08;;;1.10;;
79539;SDS011;68991;52.122;5.406;2023-07-31T13:00:35;1.52;;;1.10;;
79539;SDS011;68991;52.122;5.406;2023-07-31T13:03:02;1.67;;;1.05;;
79539;SDS011;68991;52.122;5.406;2023-07-31T13:05:29;1.70;;;1.08;;
79539;SDS011;68991;52.122;5.406;2023-07-31T13:07:56;1.50;;;1.00;;
79539;SDS011;68991;52.122;5.406;2023-07-31T13:10:23;1.38;;;0.90;;
79539;SDS011;68991;52.122;5.406;2023-07-31T13:12:50;2.22;;;0.88;;
79539;SDS011;68991;52.122;5.406;2023-07-31T13:15:17;1.27;;;0.82;;
79539;SDS011;68991;52.122;5.406;2023-07-31T13:17:43;1.70;;;1.00;;
79539;SDS011;68991;52.122;5.406;2023-07-31T13:20:10;1.80;;;1.20;;
79539;SDS011;68991;52.122;5.406;2023-07-31T13:22:36;2.05;;;0.93;;
79539;SDS011;68991;52.122;5.406;2023-07-31T13:25:03;1.33;;;0.90;;
79539;SDS011;68991;52.122;5.406;2023-07-31T13:27:30;1.55;;;0.95;;
79539;SDS011;68991;52.122;5.406;2023-07-31T13:29:57;2.15;;;1.10;;
79539;SDS011;68991;52.122;5.406;2023-07-31T13:32:23;2.05;;;1.00;;
79539;SDS011;68991;52.122;5.406;2023-07-31T13:34:50;2.35;;;1.00;;
79539;SDS011;68991;52.122;5.406;2023-07-31T13:37:17;1.60;;;0.90;;
79539;SDS011;68991;52.122;5.406;2023-07-31T13:39:44;2.47;;;1.00;;
79539;SDS011;68991;52.122;5.406;2023-07-31T13:42:10;2.40;;;0.95;;
79539;SDS011;68991;52.122;5.406;2023-07-31T13:44:38;1.63;;;1.00;;
79539;SDS011;68991;52.122;5.406;2023-07-31T13:47:05;1.60;;;0.98;;
79539;SDS011;68991;52.122;5.406;2023-07-31T13:49:32;1.77;;;0.85;;
79539;SDS011;68991;52.122;5.406;2023-07-31T13:52:00;1.65;;;0.80;;
79539;SDS011;68991;52.122;5.406;2023-07-31T13:54:26;1.80;;;1.02;;
79539;SDS011;68991;52.122;5.406;2023-07-31T13:56:56;1.70;;;0.95;;
79539;SDS011;68991;52.122;5.406;2023-07-31T13:59:23;1.85;;;1.05;;
79539;SDS011;68991;52.122;5.406;2023-07-31T14:01:49;1.80;;;1.00;;
79539;SDS011;68991;52.122;5.406;2023-07-31T14:04:16;1.30;;;0.80;;
79539;SDS011;68991;52.122;5.406;2023-07-31T14:06:44;1.55;;;0.95;;
79539;SDS011;68991;52.122;5.406;2023-07-31T14:09:10;1.60;;;0.80;;
79539;SDS011;68991;52.122;5.406;2023-07-31T14:11:37;1.40;;;0.90;;
79539;SDS011;68991;52.122;5.406;2023-07-31T14:14:08;1.52;;;0.80;;
79539;SDS011;68991;52.122;5.406;2023-07-31T14:16:35;1.98;;;1.05;;
79539;SDS011;68991;52.122;5.406;2023-07-31T14:19:02;2.38;;;1.00;;
79539;SDS011;68991;52.122;5.406;2023-07-31T14:21:29;1.52;;;1.02;;
79539;SDS011;68991;52.122;5.406;2023-07-31T14:23:55;1.90;;;1.10;;
79539;SDS011;68991;52.122;5.406;2023-07-31T14:26:21;1.60;;;1.10;;
79539;SDS011;68991;52.122;5.406;2023-07-31T14:28:48;1.63;;;1.00;;
79539;SDS011;68991;52.122;5.406;2023-07-31T14:31:14;1.73;;;0.98;;
79539;SDS011;68991;52.122;5.406;2023-07-31T14:33:41;2.00;;;1.13;;
79539;SDS011;68991;52.122;5.406;2023-07-31T14:36:08;3.10;;;1.20;;
79539;SDS011;68991;52.122;5.406;2023-07-31T14:38:34;2.15;;;1.20;;
79539;SDS011;68991;52.122;5.406;2023-07-31T14:41:01;1.73;;;1.05;;
79539;SDS011;68991;52.122;5.406;2023-07-31T14:43:27;2.50;;;1.33;;
79539;SDS011;68991;52.122;5.406;2023-07-31T14:45:54;1.67;;;1.13;;
79539;SDS011;68991;52.122;5.406;2023-07-31T14:48:24;1.38;;;1.02;;
79539;SDS011;68991;52.122;5.406;2023-07-31T14:50:50;2.15;;;1.40;;
79539;SDS011;68991;52.122;5.406;2023-07-31T14:53:17;1.40;;;0.88;;
79539;SDS011;68991;52.122;5.406;2023-07-31T14:55:43;1.95;;;1.17;;
79539;SDS011;68991;52.122;5.406;2023-07-31T14:58:09;2.08;;;1.50;;
79539;SDS011;68991;52.122;5.406;2023-07-31T15:00:38;2.10;;;1.50;;